createdAt,value
2022-10-20T00:00:58.802Z,4.1
2022-10-20T00:02:08.503Z,3.2
2022-10-20T00:03:17.218Z,3.2
2022-10-20T00:04:26.865Z,3.6
2022-10-20T00:05:36.542Z,5.1
2022-10-20T00:06:45.196Z,3.7
2022-10-20T00:07:53.866Z,4.2
2022-10-20T00:09:03.606Z,4.7
2022-10-20T00:10:13.204Z,5.1
2022-10-20T00:11:22.867Z,6.2
2022-10-20T00:12:31.524Z,5.3
2022-10-20T00:13:41.338Z,5.2
2022-10-20T00:14:50.047Z,5.3
2022-10-20T00:15:59.702Z,3.2
2022-10-20T00:17:08.389Z,4.9
2022-10-20T00:18:17.044Z,5.7
2022-10-20T00:19:26.815Z,5
2022-10-20T00:20:36.417Z,6.5
2022-10-20T00:21:45.069Z,4.1
2022-10-20T00:22:54.742Z,4
2022-10-20T00:24:04.397Z,4.4
2022-10-20T00:25:14.197Z,5.4
2022-10-20T00:26:22.906Z,4.7
2022-10-20T00:27:30.574Z,4.8
2022-10-20T00:28:41.312Z,5.2
2022-10-20T00:29:50.010Z,6.3
2022-10-20T00:30:57.688Z,4
2022-10-20T00:32:07.373Z,5.4
2022-10-20T00:33:16.032Z,4.1
2022-10-20T00:34:25.703Z,4.1
2022-10-20T00:35:34.428Z,4.5
2022-10-20T00:36:42.116Z,5.5
2022-10-20T00:37:52.769Z,5.8
2022-10-20T00:39:02.802Z,4.1
2022-10-20T00:40:10.453Z,3
2022-10-20T00:41:20.149Z,4
2022-10-20T00:42:30.260Z,5.3
2022-10-20T00:43:39.934Z,5.1
2022-10-20T00:44:49.583Z,5.2
2022-10-20T00:45:59.250Z,5
2022-10-20T00:47:08.936Z,6.9
2022-10-20T00:48:18.643Z,2.9
2022-10-20T00:49:26.287Z,4.5
2022-10-20T00:50:35.970Z,4.9
2022-10-20T00:51:45.655Z,4.1
2022-10-20T00:52:55.318Z,5
2022-10-20T00:54:05.039Z,5.7
2022-10-20T00:55:12.693Z,5.7
2022-10-20T00:56:22.357Z,3.4
2022-10-20T00:57:32.023Z,5.4
2022-10-20T00:58:41.675Z,3.6
2022-10-20T00:59:51.370Z,5.3
2022-10-20T01:01:01.040Z,6
2022-10-20T01:02:10.723Z,5.4
2022-10-20T01:03:20.385Z,4.5
2022-10-20T01:04:30.076Z,4.8
2022-10-20T01:05:39.758Z,5.1
2022-10-20T01:06:48.502Z,7.3
2022-10-20T01:07:58.111Z,7.2
2022-10-20T01:09:07.809Z,5.4
2022-10-20T01:10:17.468Z,4.8
2022-10-20T01:11:27.174Z,4.1
2022-10-20T01:12:36.868Z,6.2
2022-10-20T01:13:46.540Z,4.8
2022-10-20T01:14:56.209Z,5.5
2022-10-20T01:16:05.256Z,4.8
2022-10-20T01:17:14.023Z,4.5
2022-10-20T01:18:23.694Z,7.2
2022-10-20T01:19:32.349Z,6.8
2022-10-20T01:20:42.017Z,5.4
2022-10-20T01:21:51.688Z,5.4
2022-10-20T01:23:01.361Z,8.1
2022-10-20T01:24:11.019Z,6.8
2022-10-20T01:25:19.661Z,5.1
2022-10-20T01:26:29.323Z,7.3
2022-10-20T01:27:39.244Z,4.9
2022-10-20T01:28:48.800Z,6.3
2022-10-20T01:29:57.459Z,4.8
2022-10-20T01:31:07.146Z,5.6
2022-10-20T01:32:15.824Z,4.8
2022-10-20T01:33:25.530Z,5.4
2022-10-20T01:34:36.194Z,7.4
2022-10-20T01:35:45.865Z,4.3
2022-10-20T01:36:54.561Z,4.8
2022-10-20T01:38:04.203Z,7.7
2022-10-20T01:39:12.908Z,4.4
2022-10-20T01:40:22.586Z,5.9
2022-10-20T01:41:31.223Z,7.6
2022-10-20T01:42:40.890Z,3.6
2022-10-20T01:43:50.589Z,5.5
2022-10-20T01:44:59.273Z,5.8
2022-10-20T01:46:08.970Z,4.3
2022-10-20T01:47:18.666Z,5
2022-10-20T01:48:28.303Z,5.9
2022-10-20T01:49:37.970Z,7.2
2022-10-20T01:50:46.619Z,6.5
2022-10-20T01:51:55.338Z,3.7
2022-10-20T01:53:05.022Z,5.3
2022-10-20T01:54:14.734Z,6.2
2022-10-20T01:55:23.399Z,4.1
2022-10-20T01:56:32.117Z,4.3
2022-10-20T01:57:40.798Z,5.1
2022-10-20T01:58:50.463Z,5.9
2022-10-20T01:59:59.110Z,3.6
2022-10-20T02:01:07.859Z,4.2
2022-10-20T02:02:17.546Z,5.5
2022-10-20T02:03:26.255Z,4
2022-10-20T02:04:34.989Z,5.1
2022-10-20T02:05:44.686Z,6.2
2022-10-20T02:06:53.368Z,5.2
2022-10-20T02:08:03.049Z,5.5
2022-10-20T02:09:11.742Z,7
2022-10-20T02:10:21.387Z,4.8
2022-10-20T02:11:31.058Z,5.6
2022-10-20T02:12:40.719Z,5
2022-10-20T02:13:49.380Z,5.4
2022-10-20T02:14:58.081Z,4.1
2022-10-20T02:16:06.737Z,4.6
2022-10-20T02:17:16.464Z,6.3
2022-10-20T02:18:26.140Z,5.6
2022-10-20T02:19:34.800Z,4.6
2022-10-20T02:20:44.526Z,5
2022-10-20T02:21:53.235Z,7.4
2022-10-20T02:23:01.890Z,5.3
2022-10-20T02:24:11.552Z,4.1
2022-10-20T02:25:21.225Z,4.7
2022-10-20T02:26:30.942Z,4.4
2022-10-20T02:27:40.686Z,6.3
2022-10-20T02:28:48.331Z,6.6
2022-10-20T02:29:57.993Z,4.9
2022-10-20T02:31:07.718Z,4.2
2022-10-20T02:32:16.530Z,4.6
2022-10-20T02:33:25.193Z,7
2022-10-20T02:34:33.884Z,5.7
2022-10-20T02:35:44.539Z,4.5
2022-10-20T02:36:53.198Z,4.7
2022-10-20T02:38:01.931Z,4.4
2022-10-20T02:39:11.600Z,4.4
2022-10-20T02:40:21.277Z,6.1
2022-10-20T02:41:30.973Z,4.8
2022-10-20T02:42:40.615Z,4.7
2022-10-20T02:43:48.312Z,4.8
2022-10-20T02:44:57.970Z,4.8
2022-10-20T02:46:06.743Z,4.2
2022-10-20T02:47:15.272Z,3.5
2022-10-20T02:48:24.978Z,5.5
2022-10-20T02:49:34.694Z,4
2022-10-20T02:50:44.364Z,4.9
2022-10-20T02:51:53.024Z,5.2
2022-10-20T02:53:01.679Z,6.8
2022-10-20T02:54:11.360Z,5.4
2022-10-20T02:55:21.049Z,3.9
2022-10-20T02:56:31.041Z,5.1
2022-10-20T02:57:40.424Z,5
2022-10-20T02:58:49.051Z,4.3
2022-10-20T02:59:58.704Z,4.1
2022-10-20T03:01:08.395Z,3.7
2022-10-20T03:02:18.061Z,3.9
2022-10-20T03:03:27.708Z,4.1
2022-10-20T03:04:36.371Z,5.7
2022-10-20T03:05:43.079Z,5.1
2022-10-20T03:06:52.770Z,4.9
2022-10-20T03:08:01.437Z,4.6
2022-10-20T03:09:11.119Z,5.9
2022-10-20T03:10:19.797Z,5.3
2022-10-20T03:11:28.459Z,3.1
2022-10-20T03:12:38.147Z,5.6
2022-10-20T03:13:46.829Z,4.3
2022-10-20T03:14:55.463Z,5
2022-10-20T03:16:05.125Z,4.6
2022-10-20T03:17:13.779Z,4.2
2022-10-20T03:18:23.492Z,4.6
2022-10-20T03:19:32.160Z,4
2022-10-20T03:20:40.832Z,3.6
2022-10-20T03:21:50.505Z,5.2
2022-10-20T03:22:59.150Z,4.8
2022-10-20T03:24:07.971Z,4.2
2022-10-20T03:25:16.640Z,4.9
2022-10-20T03:26:25.308Z,4.6
2022-10-20T03:27:36.392Z,4.3
2022-10-20T03:28:45.908Z,5.1
2022-10-20T03:29:55.614Z,5.3
2022-10-20T03:31:03.263Z,3.7
2022-10-20T03:32:12.986Z,5.1
2022-10-20T03:33:21.650Z,4.4
2022-10-20T03:34:30.321Z,4.3
2022-10-20T03:35:40.112Z,4.4
2022-10-20T03:36:48.770Z,3.4
2022-10-20T03:37:58.459Z,5.4
2022-10-20T03:39:07.111Z,4.6
2022-10-20T03:40:15.834Z,4.1
2022-10-20T03:41:25.523Z,3.3
2022-10-20T03:42:35.336Z,4.7
2022-10-20T03:43:43.838Z,3.6
2022-10-20T03:44:52.501Z,4.2
2022-10-20T03:46:02.382Z,4.9
2022-10-20T03:47:12.084Z,9.5
2022-10-20T03:48:20.753Z,5.4
2022-10-20T03:49:29.435Z,4
2022-10-20T03:50:39.099Z,5.3
2022-10-20T03:51:47.814Z,6.8
2022-10-20T03:52:57.512Z,5.3
2022-10-20T03:54:07.204Z,4.4
2022-10-20T03:55:15.872Z,6.3
2022-10-20T03:56:25.546Z,3.5
2022-10-20T03:57:35.427Z,4.2
2022-10-20T03:58:43.929Z,5.3
2022-10-20T03:59:53.588Z,4.2
2022-10-20T04:01:03.298Z,5
2022-10-20T04:02:11.997Z,5.9
2022-10-20T04:03:21.689Z,5.9
2022-10-20T04:04:29.389Z,6.7
2022-10-20T04:05:39.063Z,5.1
2022-10-20T04:06:46.707Z,4.4
2022-10-20T04:07:56.378Z,5.9
2022-10-20T04:09:06.100Z,5.4
2022-10-20T04:10:15.745Z,5
2022-10-20T04:11:24.399Z,4.3
2022-10-20T04:12:34.373Z,6.7
2022-10-20T04:13:41.778Z,5.1
2022-10-20T04:14:51.523Z,4.2
2022-10-20T04:16:00.218Z,4.2
2022-10-20T04:17:07.951Z,4.4
2022-10-20T04:18:17.634Z,6
2022-10-20T04:19:27.321Z,5.6
2022-10-20T04:20:36.601Z,9.5
2022-10-20T04:21:46.708Z,4.6
2022-10-20T04:22:55.407Z,3.8
2022-10-20T04:24:05.067Z,5.9
2022-10-20T04:25:13.718Z,4.6
2022-10-20T04:26:21.376Z,4.6
2022-10-20T04:27:31.206Z,4.3
2022-10-20T04:28:40.933Z,5
2022-10-20T04:29:49.636Z,4.7
2022-10-20T04:30:58.309Z,4.9
2022-10-20T04:32:07.013Z,5
2022-10-20T04:33:16.728Z,3.8
2022-10-20T04:34:26.450Z,3.4
2022-10-20T04:35:35.190Z,4.9
2022-10-20T04:36:44.798Z,7.1
2022-10-20T04:37:53.573Z,6
2022-10-20T04:39:02.290Z,3.5
2022-10-20T04:40:11.946Z,5.3
2022-10-20T04:41:20.617Z,6.9
2022-10-20T04:42:30.310Z,4.4
2022-10-20T04:43:38.993Z,6.2
2022-10-20T04:44:46.736Z,5.8
2022-10-20T04:45:54.369Z,4.2
2022-10-20T04:47:03.059Z,3.8
2022-10-20T04:48:12.716Z,3.5
2022-10-20T04:49:22.456Z,7.5
2022-10-20T04:50:32.220Z,4.8
2022-10-20T04:51:41.881Z,6.2
2022-10-20T04:52:50.589Z,6.9
2022-10-20T04:53:58.354Z,4.2
2022-10-20T04:55:08.047Z,6.4
2022-10-20T04:56:16.766Z,3.4
2022-10-20T04:57:25.440Z,5.6
2022-10-20T04:58:35.106Z,3.7
2022-10-20T04:59:43.819Z,5.6
2022-10-20T05:00:53.512Z,3.3
2022-10-20T05:02:02.301Z,6
2022-10-20T05:04:20.607Z,5.6
2022-10-20T05:05:29.300Z,4.9
2022-10-20T05:06:38.030Z,5.4
2022-10-20T05:07:47.723Z,4.7
2022-10-20T05:08:56.509Z,4.1
2022-10-20T05:10:06.126Z,3.8
2022-10-20T05:11:14.807Z,5
2022-10-20T05:12:24.555Z,5.4
2022-10-20T05:13:34.438Z,5
2022-10-20T05:14:43.094Z,3.4
2022-10-20T05:15:52.766Z,4.8
2022-10-20T05:17:02.467Z,7.1
2022-10-20T05:18:11.117Z,4.1
2022-10-20T05:19:20.817Z,5
2022-10-20T05:20:31.106Z,4.2
2022-10-20T05:21:39.316Z,5.3
2022-10-20T05:22:48.024Z,5.6
2022-10-20T05:23:57.708Z,4.4
2022-10-20T05:25:24.752Z,5.4
2022-10-20T05:26:18.126Z,6.9
2022-10-20T05:27:26.781Z,4.8
2022-10-20T05:28:36.473Z,4.1
2022-10-20T05:29:46.349Z,6.6
2022-10-20T05:30:57.766Z,6
2022-10-20T05:32:05.642Z,5
2022-10-20T05:33:14.338Z,6.6
2022-10-20T05:34:24.000Z,6.1
2022-10-20T05:35:33.681Z,9.3
2022-10-20T05:36:43.550Z,7.2
2022-10-20T05:37:52.269Z,4.9
2022-10-20T05:39:01.928Z,5.1
2022-10-20T05:40:10.610Z,5.7
2022-10-20T05:41:19.236Z,6.1
2022-10-20T05:42:28.048Z,4.3
2022-10-20T05:43:35.788Z,7.5
2022-10-20T05:44:45.491Z,5
2022-10-20T05:45:54.160Z,5.5
2022-10-20T05:47:03.841Z,3.3
2022-10-20T05:48:13.547Z,5.8
2022-10-20T05:49:22.301Z,4.5
2022-10-20T05:50:32.020Z,6
2022-10-20T05:51:41.677Z,6.2
2022-10-20T05:52:49.350Z,3.8
2022-10-20T05:53:59.232Z,4.2
2022-10-20T05:55:08.775Z,4.7
2022-10-20T05:56:16.452Z,5.4
2022-10-20T05:57:26.172Z,4.1
2022-10-20T05:58:35.855Z,4.7
2022-10-20T05:59:44.597Z,5
2022-10-20T06:00:54.277Z,5.8
2022-10-20T06:02:04.073Z,7
2022-10-20T06:03:14.969Z,5.8
2022-10-20T06:04:23.455Z,4.4
2022-10-20T06:05:33.118Z,3.9
2022-10-20T06:06:42.779Z,5.4
2022-10-20T06:07:51.442Z,6.4
2022-10-20T06:09:00.255Z,5.7
2022-10-20T06:10:08.870Z,4.9
2022-10-20T06:11:16.575Z,3.8
2022-10-20T06:12:26.263Z,3.8
2022-10-20T06:13:34.951Z,6.2
2022-10-20T06:14:45.634Z,4.3
2022-10-20T06:15:56.299Z,5
2022-10-20T06:17:06.103Z,4.4
2022-10-20T06:18:15.824Z,5.3
2022-10-20T06:19:23.491Z,3.7
2022-10-20T06:20:32.233Z,5
2022-10-20T06:22:51.613Z,6.5
2022-10-20T06:24:00.325Z,3.4
2022-10-20T06:25:09.947Z,4.3
2022-10-20T06:26:19.651Z,3.7
2022-10-20T06:27:29.357Z,4.8
2022-10-20T06:28:39.150Z,7.2
2022-10-20T06:29:47.757Z,7
2022-10-20T06:30:57.406Z,8.3
2022-10-20T06:32:07.101Z,8.9
2022-10-20T06:33:14.743Z,12.7
2022-10-20T06:34:24.610Z,7.2
2022-10-20T06:35:34.298Z,5.2
2022-10-20T06:36:43.974Z,7.6
2022-10-20T06:37:52.681Z,6.5
2022-10-20T06:39:02.363Z,5.4
2022-10-20T06:40:12.066Z,7.4
2022-10-20T06:41:20.722Z,6
2022-10-20T06:42:30.410Z,6.1
2022-10-20T06:43:40.069Z,7.3
2022-10-20T06:44:49.749Z,5.7
2022-10-20T06:45:58.556Z,5.3
2022-10-20T06:47:08.230Z,5.7
2022-10-20T06:48:17.915Z,3.9
2022-10-20T06:49:27.593Z,4.8
2022-10-20T06:50:36.301Z,5.3
2022-10-20T06:51:46.058Z,7.6
2022-10-20T06:52:55.774Z,3.9
2022-10-20T06:54:04.441Z,2.8
2022-10-20T06:55:13.097Z,3.8
2022-10-20T06:56:22.809Z,3.4
2022-10-20T06:57:30.592Z,5
2022-10-20T06:58:40.332Z,5.8
2022-10-20T06:59:49.991Z,5.4
2022-10-20T07:00:57.685Z,3.1
2022-10-20T07:02:07.439Z,4.8
2022-10-20T07:03:16.103Z,3.4
2022-10-20T07:04:25.776Z,3.7
2022-10-20T07:05:35.460Z,3.5
2022-10-20T07:06:45.182Z,3.5
2022-10-20T07:07:54.915Z,4.6
2022-10-20T07:09:04.723Z,4.3
2022-10-20T07:10:12.353Z,4
2022-10-20T07:11:22.093Z,3.3
2022-10-20T07:12:30.750Z,3.7
2022-10-20T07:13:40.462Z,5.7
2022-10-20T07:14:49.261Z,3.9
2022-10-20T07:15:57.853Z,5
2022-10-20T07:17:07.546Z,6.5
2022-10-20T07:18:16.215Z,4.2
2022-10-20T07:19:25.892Z,7.3
2022-10-20T07:20:35.578Z,7.6
2022-10-20T07:21:45.860Z,4.8
2022-10-20T07:22:54.952Z,5.7
2022-10-20T07:24:04.613Z,6.9
2022-10-20T07:25:13.278Z,4.5
2022-10-20T07:26:21.025Z,4.8
2022-10-20T07:27:30.709Z,6.6
2022-10-20T07:28:39.392Z,7.5
2022-10-20T07:29:48.089Z,8
2022-10-20T07:30:56.782Z,7.8
2022-10-20T07:32:05.490Z,10.1
2022-10-20T07:33:15.195Z,8.9
2022-10-20T07:34:26.598Z,8.4
2022-10-20T07:35:34.510Z,7.7
2022-10-20T07:36:44.240Z,7.6
2022-10-20T07:37:52.952Z,6.6
2022-10-20T07:39:01.611Z,8.9
2022-10-20T07:40:10.296Z,6.5
2022-10-20T07:41:18.978Z,5.9
2022-10-20T07:42:28.640Z,7.9
2022-10-20T07:43:38.393Z,8.9
2022-10-20T07:44:48.058Z,6.1
2022-10-20T07:45:57.716Z,6.3
2022-10-20T07:47:07.434Z,6.5
2022-10-20T07:48:17.056Z,6.3
2022-10-20T07:49:43.251Z,5
2022-10-20T07:50:36.526Z,6.1
2022-10-20T07:51:46.233Z,4.1
2022-10-20T07:52:54.903Z,7
2022-10-20T07:54:03.574Z,4.8
2022-10-20T07:55:32.125Z,5.5
2022-10-20T07:56:22.917Z,6.1
2022-10-20T07:57:31.601Z,6.2
2022-10-20T07:58:41.270Z,7.9
2022-10-20T07:59:49.946Z,7.5
2022-10-20T08:00:59.681Z,7.4
2022-10-20T08:02:08.424Z,4.8
2022-10-20T08:03:18.078Z,5.6
2022-10-20T08:04:27.752Z,5.4
2022-10-20T08:05:36.451Z,4.8
2022-10-20T08:06:45.190Z,8.5
2022-10-20T08:07:53.879Z,7.6
2022-10-20T08:09:03.593Z,4
2022-10-20T08:10:13.247Z,4.2
2022-10-20T08:11:22.903Z,5.7
2022-10-20T08:12:31.646Z,5.5
2022-10-20T08:13:41.322Z,7.4
2022-10-20T08:14:52.778Z,5.3
2022-10-20T08:16:03.812Z,4.2
2022-10-20T08:17:13.064Z,4.5
2022-10-20T08:18:23.059Z,7.1
2022-10-20T08:19:40.274Z,3.2
2022-10-20T08:20:50.663Z,3.4
2022-10-20T08:22:00.331Z,3.2
2022-10-20T08:23:10.004Z,3.3
2022-10-20T08:24:19.718Z,2.1
2022-10-20T08:25:28.421Z,3.5
2022-10-20T08:26:38.100Z,4.6
2022-10-20T08:27:47.908Z,2.2
2022-10-20T08:28:57.485Z,5.4
2022-10-20T08:30:22.750Z,6.8
2022-10-20T08:31:15.831Z,8.4
2022-10-20T08:32:26.550Z,7.1
2022-10-20T08:33:36.296Z,3.6
2022-10-20T08:34:45.978Z,4.4
2022-10-20T08:35:54.768Z,2.9
2022-10-20T08:37:03.446Z,3.3
2022-10-20T08:38:13.135Z,2.6
2022-10-20T08:39:21.802Z,2.7
2022-10-20T08:40:30.530Z,2.6
2022-10-20T08:42:07.305Z,1.9
2022-10-20T08:42:51.064Z,2.5
2022-10-20T08:43:59.741Z,3
2022-10-20T08:45:08.455Z,2.6
2022-10-20T08:47:27.997Z,3
2022-10-20T08:48:36.563Z,5
2022-10-20T08:49:46.272Z,2.7
2022-10-20T08:50:55.941Z,3.9
2022-10-20T08:52:05.624Z,4.1
2022-10-20T08:53:14.445Z,3.8
2022-10-20T08:54:24.168Z,2.3
2022-10-20T08:55:32.847Z,2.6
2022-10-20T08:56:42.522Z,2.6
2022-10-20T08:57:52.238Z,5.2
2022-10-20T08:59:00.918Z,1.8
2022-10-20T09:00:10.618Z,3.4
2022-10-20T09:01:19.332Z,3.5
2022-10-20T09:02:28.002Z,3.4
2022-10-20T09:03:37.688Z,2.6
2022-10-20T09:04:48.457Z,2.8
2022-10-20T09:06:01.462Z,3.4
2022-10-20T09:07:11.155Z,2.6
2022-10-20T09:08:18.850Z,3.5
2022-10-20T09:09:28.565Z,5.1
2022-10-20T09:10:37.342Z,2.4
2022-10-20T09:11:47.067Z,2.3
2022-10-20T09:12:56.739Z,4.5
2022-10-20T09:14:04.428Z,2.6
2022-10-20T09:15:14.106Z,3.2
2022-10-20T09:16:27.414Z,3.5
2022-10-20T09:17:31.421Z,3
2022-10-20T09:18:40.140Z,3.6
2022-10-20T09:19:48.819Z,3.5
2022-10-20T09:20:57.511Z,2.8
2022-10-20T09:22:07.269Z,3.5
2022-10-20T09:23:39.178Z,2.2
2022-10-20T09:24:27.588Z,3.8
2022-10-20T09:25:37.262Z,2.5
2022-10-20T09:27:02.433Z,4
2022-10-20T09:27:56.655Z,3.4
2022-10-20T09:29:12.782Z,3.8
2022-10-20T09:30:16.006Z,3.4
2022-10-20T09:31:25.706Z,3.3
2022-10-20T09:32:50.883Z,2.9
2022-10-20T09:33:45.112Z,3.3
2022-10-20T09:34:54.776Z,3.8
2022-10-20T09:36:04.476Z,3.6
2022-10-20T09:37:13.216Z,3.2
2022-10-20T09:38:22.911Z,1.8
2022-10-20T09:39:31.676Z,3.4
2022-10-20T09:40:41.436Z,2.9
2022-10-20T09:41:50.226Z,3.5
2022-10-20T09:42:59.849Z,2.7
2022-10-20T09:44:09.545Z,3.2
2022-10-20T09:45:19.369Z,4.3
2022-10-20T09:46:29.055Z,3.6
2022-10-20T09:47:37.739Z,2.2
2022-10-20T09:48:45.426Z,2.5
2022-10-20T09:49:57.154Z,4.3
2022-10-20T09:51:04.008Z,2.1
2022-10-20T09:52:13.573Z,3.4
2022-10-20T09:53:23.274Z,3.2
2022-10-20T09:54:31.976Z,2.7
2022-10-20T09:55:41.686Z,5
2022-10-20T09:56:51.533Z,2.7
2022-10-20T09:58:00.339Z,3.4
2022-10-20T09:59:10.020Z,3.8
2022-10-20T10:00:35.702Z,2
2022-10-20T10:01:29.418Z,1.9
2022-10-20T10:02:39.323Z,2.6
2022-10-20T10:03:49.828Z,2.2
2022-10-20T10:04:58.512Z,3.2
2022-10-20T10:06:08.175Z,2.9
2022-10-20T10:07:16.836Z,2.8
2022-10-20T10:08:26.701Z,1.1
2022-10-20T10:09:36.406Z,2.5
2022-10-20T10:10:46.080Z,2.9
2022-10-20T10:11:55.751Z,2.2
2022-10-20T10:14:16.083Z,3.2
2022-10-20T10:15:24.776Z,2
2022-10-20T10:16:34.565Z,3.9
2022-10-20T10:17:44.316Z,2.2
2022-10-20T10:18:54.034Z,1.9
2022-10-20T10:20:01.759Z,2.1
2022-10-20T10:21:11.451Z,2.9
2022-10-20T10:22:21.140Z,2.1
2022-10-20T10:23:30.908Z,3.4
2022-10-20T10:24:42.059Z,2.2
2022-10-20T10:25:50.843Z,2.7
2022-10-20T10:27:00.538Z,2.5
2022-10-20T10:28:09.214Z,2.9
2022-10-20T10:29:17.903Z,2.5
2022-10-20T10:30:27.578Z,2.4
2022-10-20T10:31:36.253Z,1.5
2022-10-20T10:32:44.976Z,1.6
2022-10-20T10:33:54.655Z,1.3
2022-10-20T10:35:03.369Z,1.4
2022-10-20T10:36:13.030Z,2.5
2022-10-20T10:38:29.464Z,2.4
2022-10-20T10:39:39.158Z,1
2022-10-20T10:40:48.068Z,1.4
2022-10-20T10:43:05.694Z,1.2
2022-10-20T10:44:14.367Z,2.1
2022-10-20T10:45:24.066Z,3.9
2022-10-20T10:46:32.882Z,1.3
2022-10-20T10:47:41.836Z,3.3
2022-10-20T10:48:51.303Z,1
2022-10-20T10:50:01.039Z,1.8
2022-10-20T10:51:09.712Z,2
2022-10-20T10:52:18.385Z,2.2
2022-10-20T10:53:28.062Z,1.3
2022-10-20T10:54:37.827Z,1.9
2022-10-20T10:55:48.944Z,2.6
2022-10-20T10:56:56.351Z,1.2
2022-10-20T10:58:06.102Z,2.1
2022-10-20T10:59:14.757Z,1.1
2022-10-20T11:00:24.567Z,1.3
2022-10-20T11:01:33.239Z,1
2022-10-20T11:02:40.939Z,2.1
2022-10-20T11:03:50.668Z,1.3
2022-10-20T11:05:00.372Z,1.2
2022-10-20T11:06:10.135Z,0.9
2022-10-20T11:07:19.806Z,1.3
2022-10-20T11:08:28.502Z,1
2022-10-20T11:09:37.284Z,1.2
2022-10-20T11:10:45.953Z,0.9
2022-10-20T11:11:54.689Z,1.6
2022-10-20T11:13:04.350Z,1.8
2022-10-20T11:14:14.067Z,1
2022-10-20T11:15:22.718Z,0.7
2022-10-20T11:16:32.447Z,1.1
2022-10-20T11:17:42.138Z,1.1
2022-10-20T11:18:50.800Z,0.6
2022-10-20T11:20:00.488Z,0.8
2022-10-20T11:21:09.165Z,0.6
2022-10-20T11:22:18.882Z,2.6
2022-10-20T11:23:28.639Z,0.9
2022-10-20T11:24:38.360Z,1.6
2022-10-20T11:25:46.971Z,0.8
2022-10-20T11:26:55.671Z,1.4
2022-10-20T11:28:05.451Z,0.7
2022-10-20T11:29:15.208Z,0.5
2022-10-20T11:30:23.851Z,0.9
2022-10-20T11:31:33.509Z,1.1
2022-10-20T11:32:43.198Z,1.8
2022-10-20T11:33:52.929Z,1.1
2022-10-20T11:35:01.658Z,0.7
2022-10-20T11:36:11.376Z,0.4
2022-10-20T11:37:21.034Z,1.1
2022-10-20T11:38:30.772Z,1.2
2022-10-20T11:39:39.497Z,1.3
2022-10-20T11:40:47.211Z,0.8
2022-10-20T11:41:56.917Z,0.8
2022-10-20T11:43:07.599Z,0.8
2022-10-20T11:44:15.312Z,0.6
2022-10-20T11:45:25.022Z,0.9
2022-10-20T11:46:33.748Z,0.8
2022-10-20T11:47:43.405Z,1.1
2022-10-20T11:48:53.075Z,0.6
2022-10-20T11:50:02.770Z,1.9
2022-10-20T11:51:12.499Z,0.4
2022-10-20T11:52:21.325Z,0.9
2022-10-20T11:53:30.027Z,1.5
2022-10-20T11:54:39.744Z,0.8
2022-10-20T11:55:47.405Z,1
2022-10-20T11:56:57.084Z,1
2022-10-20T11:58:05.821Z,0.7
2022-10-20T11:59:13.512Z,0.4
2022-10-20T12:00:23.255Z,1.8
2022-10-20T12:01:33.045Z,0.2
2022-10-20T12:02:42.633Z,0.9
2022-10-20T12:03:51.388Z,0.7
2022-10-20T12:05:00.030Z,1.4
2022-10-20T12:06:10.113Z,1.1
2022-10-20T12:07:19.480Z,0.6
2022-10-20T12:08:30.463Z,1.1
2022-10-20T12:09:38.875Z,0.9
2022-10-20T12:10:47.626Z,0.4
2022-10-20T12:11:56.295Z,0.6
2022-10-20T12:13:05.030Z,0.4
2022-10-20T12:14:14.716Z,0.9
2022-10-20T12:15:24.532Z,1
2022-10-20T12:16:33.246Z,0.4
2022-10-20T12:17:40.920Z,0.5
2022-10-20T12:18:50.677Z,0.4
2022-10-20T12:19:59.321Z,1
2022-10-20T12:21:08.009Z,0.8
2022-10-20T12:22:16.798Z,0.6
2022-10-20T12:23:25.502Z,0.8
2022-10-20T12:24:35.275Z,0.7
2022-10-20T12:25:44.029Z,1.2
2022-10-20T12:26:52.729Z,1.5
2022-10-20T12:28:02.450Z,2.1
2022-10-20T12:29:12.179Z,0.4
2022-10-20T12:30:20.893Z,1.3
2022-10-20T12:31:29.579Z,0.7
2022-10-20T12:32:39.674Z,0.7
2022-10-20T12:33:49.033Z,0.3
2022-10-20T12:34:58.704Z,1.1
2022-10-20T12:36:08.375Z,0.9
2022-10-20T12:37:18.060Z,0.9
2022-10-20T12:38:27.838Z,0.4
2022-10-20T12:39:37.528Z,1.1
2022-10-20T12:40:46.231Z,1.6
2022-10-20T12:41:55.970Z,0.7
2022-10-20T12:43:05.830Z,0.6
2022-10-20T12:44:15.682Z,0.5
2022-10-20T12:45:24.383Z,0.6
2022-10-20T12:46:34.063Z,0.9
2022-10-20T12:47:43.817Z,1.5
2022-10-20T12:48:53.466Z,0.7
2022-10-20T12:50:02.267Z,0.6
2022-10-20T12:51:12.038Z,0.8
2022-10-20T12:52:22.715Z,1.1
2022-10-20T12:53:32.436Z,0.7
2022-10-20T12:54:44.974Z,1
2022-10-20T12:55:51.930Z,1.2
2022-10-20T12:57:01.608Z,1.5
2022-10-20T12:58:11.269Z,0.3
2022-10-20T12:59:20.957Z,0.5
2022-10-20T13:00:28.653Z,0.7
2022-10-20T13:01:38.317Z,0.8
2022-10-20T13:02:47.055Z,1
2022-10-20T13:03:55.737Z,0.7
2022-10-20T13:05:05.445Z,0.4
2022-10-20T13:06:14.165Z,0.9
2022-10-20T13:07:23.988Z,1.1
2022-10-20T13:08:33.761Z,0.7
2022-10-20T13:09:42.394Z,0.5
2022-10-20T13:10:52.126Z,0.8
2022-10-20T13:12:00.831Z,0.4
2022-10-20T13:13:08.649Z,0.6
2022-10-20T13:14:18.345Z,0.7
2022-10-20T13:15:27.024Z,1.6
2022-10-20T13:16:35.797Z,1
2022-10-20T13:17:44.489Z,4.1
2022-10-20T13:18:54.268Z,0.5
2022-10-20T13:20:03.905Z,0.4
2022-10-20T13:21:12.588Z,0.7
2022-10-20T13:22:22.283Z,1.2
2022-10-20T13:23:31.995Z,0.7
2022-10-20T13:24:44.150Z,1.6
2022-10-20T13:25:52.425Z,0.8
2022-10-20T13:27:02.178Z,0.6
2022-10-20T13:28:11.889Z,0.7
2022-10-20T13:29:20.552Z,1.8
2022-10-20T13:30:28.326Z,1
2022-10-20T13:31:38.030Z,0.6
2022-10-20T13:32:53.866Z,0.7
2022-10-20T13:34:04.191Z,1.1
2022-10-20T13:35:09.043Z,0.7
2022-10-20T13:36:18.729Z,1.4
2022-10-20T13:37:27.485Z,0.4
2022-10-20T13:38:37.214Z,0.5
2022-10-20T13:39:45.888Z,0.5
2022-10-20T13:40:55.636Z,0.6
2022-10-20T13:42:04.336Z,1.6
2022-10-20T13:43:14.012Z,0.4
2022-10-20T13:44:24.290Z,0.7
2022-10-20T13:45:31.367Z,1.2
2022-10-20T13:46:41.072Z,1.3
2022-10-20T13:47:49.827Z,0.5
2022-10-20T13:48:58.542Z,1.1
2022-10-20T13:50:08.458Z,1.8
2022-10-20T13:51:19.752Z,0.6
2022-10-20T13:52:27.697Z,1.7
2022-10-20T13:53:36.414Z,1.5
2022-10-20T13:54:45.120Z,1.5
2022-10-20T13:55:54.836Z,1.1
2022-10-20T13:57:04.521Z,0.9
2022-10-20T13:58:12.242Z,0.7
2022-10-20T14:00:30.786Z,1
2022-10-20T14:01:40.428Z,1.9
2022-10-20T14:02:50.120Z,0.8
2022-10-20T14:03:57.812Z,5.4
2022-10-20T14:05:07.529Z,1
2022-10-20T14:06:16.211Z,0.8
2022-10-20T14:07:25.912Z,1.5
2022-10-20T14:08:35.711Z,1.8
2022-10-20T14:09:46.666Z,1.2
2022-10-20T14:10:56.022Z,4.6
2022-10-20T14:12:04.747Z,1.5
2022-10-20T14:13:12.420Z,1.2
2022-10-20T14:14:22.612Z,2.8
2022-10-20T14:15:31.298Z,1.1
2022-10-20T14:16:41.017Z,1.5
2022-10-20T14:17:50.743Z,3.2
2022-10-20T14:19:00.398Z,1.3
2022-10-20T14:20:09.078Z,1.5
2022-10-20T14:21:17.797Z,2
2022-10-20T14:22:25.513Z,1.7
2022-10-20T14:23:35.211Z,1.7
2022-10-20T14:24:43.892Z,2.1
2022-10-20T14:25:51.580Z,1.3
2022-10-20T14:27:00.331Z,1
2022-10-20T14:28:10.013Z,1.1
2022-10-20T14:29:19.748Z,1.4
2022-10-20T14:30:29.421Z,1.2
2022-10-20T14:31:38.129Z,3.1
2022-10-20T14:32:47.810Z,1.5
2022-10-20T14:33:57.566Z,1.3
2022-10-20T14:35:05.304Z,1.8
2022-10-20T14:36:16.012Z,0.9
2022-10-20T14:37:25.665Z,1.6
2022-10-20T14:38:36.405Z,1.2
2022-10-20T14:39:46.107Z,1.6
2022-10-20T14:40:54.794Z,1.9
2022-10-20T14:42:04.463Z,1.2
2022-10-20T14:43:13.136Z,1.8
2022-10-20T14:44:30.904Z,2.3
2022-10-20T14:45:33.665Z,1.7
2022-10-20T14:46:42.378Z,2
2022-10-20T14:47:52.067Z,1.8
2022-10-20T14:49:00.778Z,1.4
2022-10-20T14:50:08.484Z,1.6
2022-10-20T14:51:18.182Z,2.3
2022-10-20T14:52:27.858Z,1.6
2022-10-20T14:53:35.643Z,1.5
2022-10-20T14:54:45.418Z,2.1
2022-10-20T14:55:54.078Z,3.4
2022-10-20T14:57:03.815Z,0.9
2022-10-20T14:58:13.519Z,1.9
2022-10-20T14:59:23.211Z,1.4
2022-10-20T15:00:32.902Z,1.7
2022-10-20T15:01:42.621Z,2.3
2022-10-20T15:02:52.452Z,1.9
2022-10-20T15:04:02.257Z,1.4
2022-10-20T15:05:11.846Z,2.9
2022-10-20T15:06:21.553Z,1.9
2022-10-20T15:07:31.245Z,1.6
2022-10-20T15:08:39.980Z,2.2
2022-10-20T15:09:49.722Z,1.5
2022-10-20T15:10:59.386Z,2.7
2022-10-20T15:12:08.092Z,1.6
2022-10-20T15:13:17.821Z,1.3
2022-10-20T15:14:28.574Z,1.8
2022-10-20T15:15:38.256Z,1.8
2022-10-20T15:16:48.008Z,1.2
2022-10-20T15:17:56.721Z,1.3
2022-10-20T15:19:05.485Z,2.2
2022-10-20T15:20:15.192Z,1.3
2022-10-20T15:21:23.861Z,5.6
2022-10-20T15:22:33.820Z,1.6
2022-10-20T15:23:42.248Z,1.7
2022-10-20T15:24:50.003Z,2.5
2022-10-20T15:25:59.733Z,2.3
2022-10-20T15:27:09.404Z,1.7
2022-10-20T15:28:18.106Z,1.2
2022-10-20T15:29:27.773Z,3
2022-10-20T15:30:37.485Z,2.1
2022-10-20T15:31:46.178Z,1.7
2022-10-20T15:32:55.868Z,2.8
2022-10-20T15:34:05.599Z,2
2022-10-20T15:35:14.257Z,2
2022-10-20T15:36:22.936Z,1.2
2022-10-20T15:37:32.048Z,1.4
2022-10-20T15:38:41.762Z,1.8
2022-10-20T15:39:50.457Z,2.4
2022-10-20T15:40:59.142Z,2.4
2022-10-20T15:42:08.885Z,1.3
2022-10-20T15:43:18.664Z,2.4
2022-10-20T15:44:28.371Z,2.5
2022-10-20T15:45:37.132Z,2.7
2022-10-20T15:46:45.843Z,1.4
2022-10-20T15:47:55.595Z,2
2022-10-20T15:49:04.311Z,6.2
2022-10-20T15:50:12.995Z,2.6
2022-10-20T15:51:23.003Z,2.2
2022-10-20T15:52:30.798Z,1.5
2022-10-20T15:53:40.523Z,3
2022-10-20T15:54:49.251Z,1.7
2022-10-20T15:55:57.996Z,3.8
2022-10-20T15:57:07.727Z,1.2
2022-10-20T15:58:16.446Z,2.1
2022-10-20T15:59:26.136Z,1.9
2022-10-20T16:00:35.935Z,3.2
2022-10-20T16:01:44.579Z,2.7
2022-10-20T16:02:54.277Z,3.2
2022-10-20T16:04:02.952Z,2.2
2022-10-20T16:05:11.640Z,1.4
2022-10-20T16:06:21.499Z,4.2
2022-10-20T16:07:31.193Z,1.9
2022-10-20T16:08:40.926Z,3.4